sensor_id;sensor_type;location;lat;lon;timestamp;pressure;altitude;pressure_sealevel;temperature;humidity
7297;BME280;40758;54.038;11.684;2023-04-28T00:00:18;101787.38;;;-2.07;83.03
7297;BME280;40758;54.038;11.684;2023-04-28T00:02:45;101795.03;;;-2.03;83.57
7297;BME280;40758;54.038;11.684;2023-04-28T00:05:14;101799.59;;;-1.70;84.47
7297;BME280;40758;54.038;11.684;2023-04-28T00:07:44;101794.94;;;-1.55;84.91
7297;BME280;40758;54.038;11.684;2023-04-28T00:10:11;101785.50;;;-1.48;85.13
7297;BME280;40758;54.038;11.684;2023-04-28T00:12:38;101767.19;;;-1.52;84.79
7297;BME280;40758;54.038;11.684;2023-04-28T00:15:05;101786.03;;;-1.31;85.35
7297;BME280;40758;54.038;11.684;2023-04-28T00:17:31;101773.66;;;-1.32;85.43
7297;BME280;40758;54.038;11.684;2023-04-28T00:19:58;101779.94;;;-1.45;84.77
7297;BME280;40758;54.038;11.684;2023-04-28T00:22:28;101765.00;;;-1.58;84.76
7297;BME280;40758;54.038;11.684;2023-04-28T00:24:58;101775.75;;;-1.71;84.60
7297;BME280;40758;54.038;11.684;2023-04-28T00:27:25;101751.56;;;-2.03;84.03
7297;BME280;40758;54.038;11.684;2023-04-28T00:29:55;101771.66;;;-1.99;84.13
7297;BME280;40758;54.038;11.684;2023-04-28T00:32:22;101766.28;;;-2.10;84.20
7297;BME280;40758;54.038;11.684;2023-04-28T00:34:49;101774.72;;;-2.17;84.17
7297;BME280;40758;54.038;11.684;2023-04-28T00:37:15;101771.47;;;-2.20;84.43
7297;BME280;40758;54.038;11.684;2023-04-28T00:39:42;101761.22;;;-2.13;85.00
7297;BME280;40758;54.038;11.684;2023-04-28T00:42:13;101753.78;;;-2.21;84.70
7297;BME280;40758;54.038;11.684;2023-04-28T00:44:40;101768.81;;;-2.09;85.18
7297;BME280;40758;54.038;11.684;2023-04-28T00:47:10;101765.41;;;-1.87;85.69
7297;BME280;40758;54.038;11.684;2023-04-28T00:49:37;101752.72;;;-1.83;86.05
7297;BME280;40758;54.038;11.684;2023-04-28T00:52:05;101751.63;;;-1.81;85.86
7297;BME280;40758;54.038;11.684;2023-04-28T00:54:32;101755.31;;;-1.71;86.10
7297;BME280;40758;54.038;11.684;2023-04-28T00:57:00;101760.03;;;-1.63;86.42
7297;BME280;40758;54.038;11.684;2023-04-28T00:59:28;101759.28;;;-1.76;85.65
7297;BME280;40758;54.038;11.684;2023-04-28T01:01:58;101758.28;;;-1.87;85.79
7297;BME280;40758;54.038;11.684;2023-04-28T01:04:26;101757.50;;;-2.00;85.64
7297;BME280;40758;54.038;11.684;2023-04-28T01:06:55;101754.69;;;-2.09;85.61
7297;BME280;40758;54.038;11.684;2023-04-28T01:09:22;101753.09;;;-2.12;85.73
7297;BME280;40758;54.038;11.684;2023-04-28T01:11:49;101755.56;;;-1.98;86.66
7297;BME280;40758;54.038;11.684;2023-04-28T01:14:15;101739.13;;;-1.92;86.54
7297;BME280;40758;54.038;11.684;2023-04-28T01:16:43;101751.59;;;-1.92;86.37
7297;BME280;40758;54.038;11.684;2023-04-28T01:19:17;101747.13;;;-1.92;86.57
7297;BME280;40758;54.038;11.684;2023-04-28T01:21:45;101729.66;;;-2.07;86.68
7297;BME280;40758;54.038;11.684;2023-04-28T01:24:11;101743.00;;;-1.96;86.42
7297;BME280;40758;54.038;11.684;2023-04-28T01:26:38;101755.94;;;-2.02;85.93
7297;BME280;40758;54.038;11.684;2023-04-28T01:29:05;101759.00;;;-2.20;86.18
7297;BME280;40758;54.038;11.684;2023-04-28T01:31:32;101747.59;;;-2.22;86.59
7297;BME280;40758;54.038;11.684;2023-04-28T01:33:58;101749.16;;;-2.30;86.14
7297;BME280;40758;54.038;11.684;2023-04-28T01:36:27;101745.75;;;-2.32;86.35
7297;BME280;40758;54.038;11.684;2023-04-28T01:38:54;101745.69;;;-2.44;86.03
7297;BME280;40758;54.038;11.684;2023-04-28T01:41:22;101740.81;;;-2.50;86.34
7297;BME280;40758;54.038;11.684;2023-04-28T01:43:48;101753.84;;;-2.58;86.07
7297;BME280;40758;54.038;11.684;2023-04-28T01:46:15;101755.44;;;-2.68;86.04
7297;BME280;40758;54.038;11.684;2023-04-28T01:48:42;101757.81;;;-2.76;85.80
7297;BME280;40758;54.038;11.684;2023-04-28T01:51:08;101753.41;;;-2.88;85.96
7297;BME280;40758;54.038;11.684;2023-04-28T01:53:35;101762.09;;;-2.86;86.09
7297;BME280;40758;54.038;11.684;2023-04-28T01:56:02;101757.31;;;-2.81;86.81
7297;BME280;40758;54.038;11.684;2023-04-28T01:58:28;101755.94;;;-2.87;86.45
7297;BME280;40758;54.038;11.684;2023-04-28T02:00:55;101755.09;;;-2.87;86.75
7297;BME280;40758;54.038;11.684;2023-04-28T02:03:22;101748.44;;;-2.69;87.33
7297;BME280;40758;54.038;11.684;2023-04-28T02:05:49;101743.44;;;-2.61;87.70
7297;BME280;40758;54.038;11.684;2023-04-28T02:08:15;101739.91;;;-2.61;87.50
7297;BME280;40758;54.038;11.684;2023-04-28T02:10:42;101738.53;;;-2.67;86.82
7297;BME280;40758;54.038;11.684;2023-04-28T02:13:10;101739.50;;;-2.68;87.58
7297;BME280;40758;54.038;11.684;2023-04-28T02:15:41;101750.97;;;-2.55;87.37
7297;BME280;40758;54.038;11.684;2023-04-28T02:18:09;101752.47;;;-2.63;86.92
7297;BME280;40758;54.038;11.684;2023-04-28T02:20:38;101755.66;;;-2.58;87.57
7297;BME280;40758;54.038;11.684;2023-04-28T02:23:04;101751.22;;;-2.71;87.36
7297;BME280;40758;54.038;11.684;2023-04-28T02:25:31;101746.47;;;-2.78;86.83
7297;BME280;40758;54.038;11.684;2023-04-28T02:27:57;101749.72;;;-2.75;87.36
7297;BME280;40758;54.038;11.684;2023-04-28T02:30:25;101743.06;;;-2.80;87.01
7297;BME280;40758;54.038;11.684;2023-04-28T02:32:52;101746.47;;;-2.91;87.55
7297;BME280;40758;54.038;11.684;2023-04-28T02:35:21;101742.03;;;-3.03;86.86
7297;BME280;40758;54.038;11.684;2023-04-28T02:37:48;101744.28;;;-3.10;87.29
7297;BME280;40758;54.038;11.684;2023-04-28T02:40:15;101742.06;;;-3.16;86.81
7297;BME280;40758;54.038;11.684;2023-04-28T02:42:41;101747.91;;;-3.24;86.79
7297;BME280;40758;54.038;11.684;2023-04-28T02:45:08;101744.00;;;-3.18;87.80
7297;BME280;40758;54.038;11.684;2023-04-28T02:47:35;101745.69;;;-3.17;87.72
7297;BME280;40758;54.038;11.684;2023-04-28T02:50:02;101750.34;;;-3.21;87.75
7297;BME280;40758;54.038;11.684;2023-04-28T02:52:29;101738.16;;;-3.23;87.93
7297;BME280;40758;54.038;11.684;2023-04-28T02:54:56;101742.88;;;-3.03;88.08
7297;BME280;40758;54.038;11.684;2023-04-28T02:57:23;101734.59;;;-2.98;88.30
7297;BME280;40758;54.038;11.684;2023-04-28T02:59:50;101730.19;;;-2.86;88.24
7297;BME280;40758;54.038;11.684;2023-04-28T03:02:16;101727.13;;;-2.93;88.17
7297;BME280;40758;54.038;11.684;2023-04-28T03:04:43;101722.78;;;-2.94;88.35
7297;BME280;40758;54.038;11.684;2023-04-28T03:07:10;101728.84;;;-2.92;88.04
7297;BME280;40758;54.038;11.684;2023-04-28T03:09:36;101727.03;;;-2.91;87.97
7297;BME280;40758;54.038;11.684;2023-04-28T03:12:03;101728.84;;;-2.92;88.01
7297;BME280;40758;54.038;11.684;2023-04-28T03:14:30;101708.97;;;-2.99;88.07
7297;BME280;40758;54.038;11.684;2023-04-28T03:16:56;101703.59;;;-3.10;88.23
7297;BME280;40758;54.038;11.684;2023-04-28T03:19:23;101723.56;;;-3.05;88.28
7297;BME280;40758;54.038;11.684;2023-04-28T03:21:50;101718.44;;;-3.08;87.90
7297;BME280;40758;54.038;11.684;2023-04-28T03:24:16;101688.53;;;-3.23;88.35
7297;BME280;40758;54.038;11.684;2023-04-28T03:26:43;101707.59;;;-3.05;88.33
7297;BME280;40758;54.038;11.684;2023-04-28T03:29:10;101704.19;;;-2.94;88.60
7297;BME280;40758;54.038;11.684;2023-04-28T03:31:37;101707.88;;;-2.84;88.87
7297;BME280;40758;54.038;11.684;2023-04-28T03:34:03;101707.88;;;-2.84;88.41
7297;BME280;40758;54.038;11.684;2023-04-28T03:36:30;101716.63;;;-2.95;88.11
7297;BME280;40758;54.038;11.684;2023-04-28T03:38:57;101707.38;;;-2.89;88.39
7297;BME280;40758;54.038;11.684;2023-04-28T03:41:24;101696.91;;;-2.79;88.74
7297;BME280;40758;54.038;11.684;2023-04-28T03:43:52;101696.75;;;-2.65;89.03
7297;BME280;40758;54.038;11.684;2023-04-28T03:46:19;101696.06;;;-2.56;89.09
7297;BME280;40758;54.038;11.684;2023-04-28T03:48:45;101687.13;;;-2.55;88.87
7297;BME280;40758;54.038;11.684;2023-04-28T03:51:12;101690.66;;;-2.54;88.54
7297;BME280;40758;54.038;11.684;2023-04-28T03:53:39;101686.72;;;-2.61;88.92
7297;BME280;40758;54.038;11.684;2023-04-28T03:56:06;101683.34;;;-2.63;88.65
7297;BME280;40758;54.038;11.684;2023-04-28T03:58:33;101683.91;;;-2.71;88.60
7297;BME280;40758;54.038;11.684;2023-04-28T04:00:59;101687.22;;;-2.80;88.15
7297;BME280;40758;54.038;11.684;2023-04-28T04:03:26;101652.78;;;-3.06;88.20
7297;BME280;40758;54.038;11.684;2023-04-28T04:05:53;101681.31;;;-2.97;88.40
7297;BME280;40758;54.038;11.684;2023-04-28T04:08:21;101674.16;;;-3.07;87.86
7297;BME280;40758;54.038;11.684;2023-04-28T04:10:48;101679.03;;;-3.01;88.35
7297;BME280;40758;54.038;11.684;2023-04-28T04:13:15;101671.53;;;-2.96;88.38
7297;BME280;40758;54.038;11.684;2023-04-28T04:15:41;101666.25;;;-2.72;88.72
7297;BME280;40758;54.038;11.684;2023-04-28T04:18:08;101673.34;;;-2.60;88.80
7297;BME280;40758;54.038;11.684;2023-04-28T04:20:35;101674.31;;;-2.50;88.97
7297;BME280;40758;54.038;11.684;2023-04-28T04:23:02;101656.41;;;-2.59;88.88
7297;BME280;40758;54.038;11.684;2023-04-28T04:25:29;101661.41;;;-2.54;88.95
7297;BME280;40758;54.038;11.684;2023-04-28T04:27:56;101666.72;;;-2.54;88.66
7297;BME280;40758;54.038;11.684;2023-04-28T04:30:22;101661.03;;;-2.50;88.73
7297;BME280;40758;54.038;11.684;2023-04-28T04:32:49;101653.03;;;-2.26;89.14
7297;BME280;40758;54.038;11.684;2023-04-28T04:35:16;101649.94;;;-2.08;89.08
7297;BME280;40758;54.038;11.684;2023-04-28T04:37:43;101645.50;;;-1.97;88.96
7297;BME280;40758;54.038;11.684;2023-04-28T04:40:10;101653.72;;;-1.89;89.15
7297;BME280;40758;54.038;11.684;2023-04-28T04:42:37;101652.03;;;-1.90;89.00
7297;BME280;40758;54.038;11.684;2023-04-28T04:45:04;101656.72;;;-1.93;88.77
7297;BME280;40758;54.038;11.684;2023-04-28T04:47:31;101650.19;;;-2.00;88.34
7297;BME280;40758;54.038;11.684;2023-04-28T04:49:57;101653.19;;;-2.05;88.66
7297;BME280;40758;54.038;11.684;2023-04-28T04:52:24;101652.97;;;-2.02;88.23
7297;BME280;40758;54.038;11.684;2023-04-28T04:54:54;101651.56;;;-1.83;88.83
7297;BME280;40758;54.038;11.684;2023-04-28T04:57:22;101649.13;;;-1.75;88.63
7297;BME280;40758;54.038;11.684;2023-04-28T04:59:49;101650.34;;;-1.57;88.73
7297;BME280;40758;54.038;11.684;2023-04-28T05:02:16;101641.41;;;-1.45;88.58
7297;BME280;40758;54.038;11.684;2023-04-28T05:04:43;101645.28;;;-1.26;88.50
7297;BME280;40758;54.038;11.684;2023-04-28T05:07:10;101638.69;;;-1.11;88.32
7297;BME280;40758;54.038;11.684;2023-04-28T05:09:36;101633.81;;;-0.95;88.45
7297;BME280;40758;54.038;11.684;2023-04-28T05:12:04;101639.34;;;-0.75;88.34
7297;BME280;40758;54.038;11.684;2023-04-28T05:14:31;101634.72;;;-0.62;88.27
7297;BME280;40758;54.038;11.684;2023-04-28T05:16:57;101640.19;;;-0.43;88.09
7297;BME280;40758;54.038;11.684;2023-04-28T05:19:25;101619.31;;;-0.38;87.93
7297;BME280;40758;54.038;11.684;2023-04-28T05:21:52;101627.44;;;-0.18;88.19
7297;BME280;40758;54.038;11.684;2023-04-28T05:24:21;101627.00;;;-0.03;87.99
7297;BME280;40758;54.038;11.684;2023-04-28T05:26:51;101639.06;;;0.13;87.93
7297;BME280;40758;54.038;11.684;2023-04-28T05:29:18;101624.50;;;0.26;87.92
7297;BME280;40758;54.038;11.684;2023-04-28T05:31:46;101619.06;;;0.38;87.69
7297;BME280;40758;54.038;11.684;2023-04-28T05:34:13;101621.66;;;0.49;87.64
7297;BME280;40758;54.038;11.684;2023-04-28T05:36:40;101613.78;;;0.57;87.66
7297;BME280;40758;54.038;11.684;2023-04-28T05:39:07;101615.09;;;0.63;87.82
7297;BME280;40758;54.038;11.684;2023-04-28T05:41:34;101614.28;;;0.72;87.72
7297;BME280;40758;54.038;11.684;2023-04-28T05:44:03;101617.97;;;0.90;88.29
7297;BME280;40758;54.038;11.684;2023-04-28T05:46:29;101611.97;;;1.08;87.91
7297;BME280;40758;54.038;11.684;2023-04-28T05:48:59;101611.69;;;1.20;87.69
7297;BME280;40758;54.038;11.684;2023-04-28T05:51:26;101596.34;;;1.32;87.18
7297;BME280;40758;54.038;11.684;2023-04-28T05:53:53;101598.91;;;1.63;87.00
7297;BME280;40758;54.038;11.684;2023-04-28T05:56:20;101604.81;;;1.66;86.66
7297;BME280;40758;54.038;11.684;2023-04-28T05:58:46;101610.09;;;2.52;86.81
7297;BME280;40758;54.038;11.684;2023-04-28T06:01:17;101593.88;;;4.14;86.53
7297;BME280;40758;54.038;11.684;2023-04-28T06:03:43;101584.53;;;5.27;84.66
7297;BME280;40758;54.038;11.684;2023-04-28T06:06:11;101581.88;;;5.59;82.78
7297;BME280;40758;54.038;11.684;2023-04-28T06:08:38;101578.81;;;6.11;81.55
7297;BME280;40758;54.038;11.684;2023-04-28T06:11:05;101576.34;;;6.49;80.43
7297;BME280;40758;54.038;11.684;2023-04-28T06:13:32;101573.13;;;6.93;79.32
7297;BME280;40758;54.038;11.684;2023-04-28T06:15:59;101567.06;;;6.91;77.57
7297;BME280;40758;54.038;11.684;2023-04-28T06:18:28;101565.56;;;7.42;77.91
7297;BME280;40758;54.038;11.684;2023-04-28T06:20:58;101577.31;;;7.27;75.83
7297;BME280;40758;54.038;11.684;2023-04-28T06:23:26;101568.38;;;7.87;77.75
7297;BME280;40758;54.038;11.684;2023-04-28T06:25:57;101555.66;;;8.25;75.95
7297;BME280;40758;54.038;11.684;2023-04-28T06:28:27;101564.63;;;9.06;76.51
7297;BME280;40758;54.038;11.684;2023-04-28T06:30:57;101560.66;;;9.23;74.42
7297;BME280;40758;54.038;11.684;2023-04-28T06:33:26;101549.59;;;8.52;72.10
7297;BME280;40758;54.038;11.684;2023-04-28T06:35:56;101548.84;;;8.44;71.82
7297;BME280;40758;54.038;11.684;2023-04-28T06:38:23;101546.75;;;8.75;71.35
7297;BME280;40758;54.038;11.684;2023-04-28T06:40:53;101542.22;;;8.97;70.41
7297;BME280;40758;54.038;11.684;2023-04-28T06:43:23;101549.66;;;9.53;70.87
7297;BME280;40758;54.038;11.684;2023-04-28T06:45:52;101552.91;;;9.42;69.75
7297;BME280;40758;54.038;11.684;2023-04-28T06:48:21;101550.41;;;9.68;67.90
7297;BME280;40758;54.038;11.684;2023-04-28T06:50:49;101546.28;;;9.08;66.55
7297;BME280;40758;54.038;11.684;2023-04-28T06:53:19;101550.75;;;9.37;65.82
7297;BME280;40758;54.038;11.684;2023-04-28T06:55:47;101546.91;;;9.46;64.62
7297;BME280;40758;54.038;11.684;2023-04-28T06:58:14;101545.44;;;9.72;64.46
7297;BME280;40758;54.038;11.684;2023-04-28T07:00:43;101549.09;;;9.85;63.74
7297;BME280;40758;54.038;11.684;2023-04-28T07:03:10;101539.88;;;10.08;61.84
7297;BME280;40758;54.038;11.684;2023-04-28T07:05:37;101536.97;;;10.09;60.01
7297;BME280;40758;54.038;11.684;2023-04-28T07:08:05;101526.66;;;10.26;60.55
7297;BME280;40758;54.038;11.684;2023-04-28T07:10:32;101538.81;;;10.37;59.17
7297;BME280;40758;54.038;11.684;2023-04-28T07:12:59;101537.41;;;10.48;57.71
7297;BME280;40758;54.038;11.684;2023-04-28T07:15:27;101528.59;;;10.32;56.64
7297;BME280;40758;54.038;11.684;2023-04-28T07:17:53;101538.75;;;10.65;56.78
7297;BME280;40758;54.038;11.684;2023-04-28T07:20:21;101526.91;;;10.79;56.26
7297;BME280;40758;54.038;11.684;2023-04-28T07:22:54;101512.16;;;11.22;56.51
7297;BME280;40758;54.038;11.684;2023-04-28T07:25:21;101505.44;;;10.98;53.67
7297;BME280;40758;54.038;11.684;2023-04-28T07:27:48;101510.50;;;11.47;54.38
7297;BME280;40758;54.038;11.684;2023-04-28T07:30:15;101512.84;;;11.83;53.02
7297;BME280;40758;54.038;11.684;2023-04-28T07:32:53;101519.53;;;11.67;52.52
7297;BME280;40758;54.038;11.684;2023-04-28T07:35:22;101513.66;;;11.64;52.61
7297;BME280;40758;54.038;11.684;2023-04-28T07:37:52;101510.94;;;12.04;51.97
7297;BME280;40758;54.038;11.684;2023-04-28T07:40:20;101507.56;;;11.75;50.22
7297;BME280;40758;54.038;11.684;2023-04-28T07:42:49;101507.38;;;11.96;51.15
7297;BME280;40758;54.038;11.684;2023-04-28T07:45:15;101510.53;;;11.67;48.63
7297;BME280;40758;54.038;11.684;2023-04-28T07:47:42;101510.06;;;11.17;48.53
7297;BME280;40758;54.038;11.684;2023-04-28T07:50:10;101512.59;;;11.52;48.34
7297;BME280;40758;54.038;11.684;2023-04-28T07:52:38;101502.59;;;11.85;48.21
7297;BME280;40758;54.038;11.684;2023-04-28T07:55:05;101508.81;;;12.19;47.49
7297;BME280;40758;54.038;11.684;2023-04-28T07:57:32;101508.75;;;12.32;47.31
7297;BME280;40758;54.038;11.684;2023-04-28T07:59:59;101507.50;;;12.41;45.90
7297;BME280;40758;54.038;11.684;2023-04-28T08:02:26;101509.22;;;12.16;44.18
7297;BME280;40758;54.038;11.684;2023-04-28T08:04:53;101506.69;;;12.21;44.81
7297;BME280;40758;54.038;11.684;2023-04-28T08:07:20;101501.59;;;12.44;44.59
7297;BME280;40758;54.038;11.684;2023-04-28T08:09:47;101500.84;;;12.24;43.13
7297;BME280;40758;54.038;11.684;2023-04-28T08:12:13;101498.50;;;12.28;42.60
7297;BME280;40758;54.038;11.684;2023-04-28T08:14:41;101507.28;;;12.81;43.17
7297;BME280;40758;54.038;11.684;2023-04-28T08:17:08;101507.22;;;12.56;41.94
7297;BME280;40758;54.038;11.684;2023-04-28T08:19:35;101506.78;;;12.59;41.94
7297;BME280;40758;54.038;11.684;2023-04-28T08:22:01;101513.31;;;12.45;40.99
7297;BME280;40758;54.038;11.684;2023-04-28T08:24:32;101495.97;;;12.84;41.06
7297;BME280;40758;54.038;11.684;2023-04-28T08:27:02;101502.72;;;12.75;41.25
7297;BME280;40758;54.038;11.684;2023-04-28T08:29:30;101503.81;;;13.05;40.97
7297;BME280;40758;54.038;11.684;2023-04-28T08:31:57;101503.66;;;12.56;40.12
7297;BME280;40758;54.038;11.684;2023-04-28T08:34:24;101502.56;;;11.98;39.81
7297;BME280;40758;54.038;11.684;2023-04-28T08:36:54;101495.09;;;12.45;40.84
7297;BME280;40758;54.038;11.684;2023-04-28T08:39:24;101492.81;;;12.87;40.30
7297;BME280;40758;54.038;11.684;2023-04-28T08:41:52;101488.25;;;13.13;39.36
7297;BME280;40758;54.038;11.684;2023-04-28T08:44:19;101489.75;;;12.70;38.64
7297;BME280;40758;54.038;11.684;2023-04-28T08:46:48;101479.19;;;12.87;39.09
7297;BME280;40758;54.038;11.684;2023-04-28T08:49:17;101490.09;;;12.87;38.23
7297;BME280;40758;54.038;11.684;2023-04-28T08:54:15;101478.44;;;12.67;37.72
7297;BME280;40758;54.038;11.684;2023-04-28T08:56:56;101486.06;;;12.51;37.81
7297;BME280;40758;54.038;11.684;2023-04-28T08:59:23;101488.13;;;12.56;37.42
7297;BME280;40758;54.038;11.684;2023-04-28T09:01:50;101476.28;;;12.75;38.46
7297;BME280;40758;54.038;11.684;2023-04-28T09:04:18;101474.13;;;12.91;38.08
7297;BME280;40758;54.038;11.684;2023-04-28T09:06:46;101477.38;;;12.30;37.67
7297;BME280;40758;54.038;11.684;2023-04-28T09:09:24;101468.84;;;12.06;38.22
7297;BME280;40758;54.038;11.684;2023-04-28T09:11:53;101469.06;;;12.56;39.26
7297;BME280;40758;54.038;11.684;2023-04-28T09:14:22;101462.22;;;12.47;37.55
7297;BME280;40758;54.038;11.684;2023-04-28T09:16:49;101457.81;;;13.22;38.37
7297;BME280;40758;54.038;11.684;2023-04-28T09:19:17;101455.97;;;13.41;36.86
7297;BME280;40758;54.038;11.684;2023-04-28T09:21:54;101452.72;;;13.26;38.12
7297;BME280;40758;54.038;11.684;2023-04-28T09:24:33;101449.44;;;13.42;36.56
7297;BME280;40758;54.038;11.684;2023-04-28T09:27:03;101446.88;;;13.91;36.97
7297;BME280;40758;54.038;11.684;2023-04-28T09:29:30;101446.03;;;13.72;35.23
7297;BME280;40758;54.038;11.684;2023-04-28T09:32:14;101430.50;;;14.27;36.04
7297;BME280;40758;54.038;11.684;2023-04-28T09:34:54;101439.50;;;14.64;35.05
7297;BME280;40758;54.038;11.684;2023-04-28T09:37:26;101409.97;;;14.55;34.89
7297;BME280;40758;54.038;11.684;2023-04-28T09:40:02;101433.59;;;14.49;33.07
7297;BME280;40758;54.038;11.684;2023-04-28T09:42:40;101434.28;;;14.45;33.32
7297;BME280;40758;54.038;11.684;2023-04-28T09:45:13;101426.50;;;14.11;32.28
7297;BME280;40758;54.038;11.684;2023-04-28T09:47:44;101425.69;;;14.59;33.26
7297;BME280;40758;54.038;11.684;2023-04-28T09:50:16;101410.19;;;14.83;32.35
7297;BME280;40758;54.038;11.684;2023-04-28T09:52:47;101426.31;;;14.61;32.53
7297;BME280;40758;54.038;11.684;2023-04-28T09:55:29;101411.84;;;14.06;32.63
7297;BME280;40758;54.038;11.684;2023-04-28T09:57:58;101413.28;;;14.27;33.49
7297;BME280;40758;54.038;11.684;2023-04-28T10:00:32;101398.84;;;14.38;33.06
7297;BME280;40758;54.038;11.684;2023-04-28T10:03:00;101392.19;;;13.79;31.79
7297;BME280;40758;54.038;11.684;2023-04-28T10:05:27;101395.47;;;13.88;33.29
7297;BME280;40758;54.038;11.684;2023-04-28T10:07:54;101384.94;;;14.58;33.65
7297;BME280;40758;54.038;11.684;2023-04-28T10:10:25;101356.19;;;14.37;32.40
7297;BME280;40758;54.038;11.684;2023-04-28T10:12:55;101364.47;;;14.79;33.26
7297;BME280;40758;54.038;11.684;2023-04-28T10:15:27;101368.66;;;14.33;32.24
7297;BME280;40758;54.038;11.684;2023-04-28T10:17:54;101352.19;;;14.70;32.16
7297;BME280;40758;54.038;11.684;2023-04-28T10:20:22;101357.19;;;14.73;31.40
7297;BME280;40758;54.038;11.684;2023-04-28T10:25:35;101361.94;;;14.17;32.11
7297;BME280;40758;54.038;11.684;2023-04-28T10:28:06;101360.63;;;14.68;32.15
7297;BME280;40758;54.038;11.684;2023-04-28T10:30:34;101355.50;;;14.72;31.30
7297;BME280;40758;54.038;11.684;2023-04-28T10:38:19;101334.91;;;14.57;31.17
7297;BME280;40758;54.038;11.684;2023-04-28T10:40:52;101338.38;;;14.04;30.93
7297;BME280;40758;54.038;11.684;2023-04-28T10:45:59;101327.44;;;14.04;31.41
7297;BME280;40758;54.038;11.684;2023-04-28T10:56:14;101325.16;;;14.01;31.16
7297;BME280;40758;54.038;11.684;2023-04-28T10:58:43;101323.03;;;13.85;31.24
7297;BME280;40758;54.038;11.684;2023-04-28T11:06:30;101320.47;;;14.80;31.04
7297;BME280;40758;54.038;11.684;2023-04-28T11:16:58;101317.94;;;14.55;29.50
7297;BME280;40758;54.038;11.684;2023-04-28T11:22:04;101312.31;;;13.72;29.32
7297;BME280;40758;54.038;11.684;2023-04-28T11:24:36;101298.00;;;14.06;30.18
7297;BME280;40758;54.038;11.684;2023-04-28T11:27:03;101309.72;;;14.55;29.80
7297;BME280;40758;54.038;11.684;2023-04-28T11:29:38;101314.69;;;14.47;28.70
7297;BME280;40758;54.038;11.684;2023-04-28T11:32:08;101305.03;;;14.44;28.85
7297;BME280;40758;54.038;11.684;2023-04-28T11:34:36;101299.75;;;14.61;29.32
7297;BME280;40758;54.038;11.684;2023-04-28T11:37:03;101299.25;;;14.52;29.11
7297;BME280;40758;54.038;11.684;2023-04-28T11:39:33;101290.31;;;14.45;29.09
7297;BME280;40758;54.038;11.684;2023-04-28T11:42:02;101299.56;;;14.44;29.86
7297;BME280;40758;54.038;11.684;2023-04-28T11:44:34;101298.84;;;14.90;30.43
7297;BME280;40758;54.038;11.684;2023-04-28T11:47:02;101285.91;;;15.09;29.72
7297;BME280;40758;54.038;11.684;2023-04-28T11:49:31;101280.19;;;14.99;29.18
7297;BME280;40758;54.038;11.684;2023-04-28T11:52:07;101292.06;;;15.16;29.94
7297;BME280;40758;54.038;11.684;2023-04-28T11:54:34;101290.78;;;15.19;30.14
7297;BME280;40758;54.038;11.684;2023-04-28T11:57:03;101279.84;;;15.19;29.67
7297;BME280;40758;54.038;11.684;2023-04-28T11:59:33;101265.66;;;15.34;29.40
7297;BME280;40758;54.038;11.684;2023-04-28T12:02:05;101275.28;;;15.01;29.47
7297;BME280;40758;54.038;11.684;2023-04-28T12:04:34;101275.78;;;15.22;30.83
7297;BME280;40758;54.038;11.684;2023-04-28T12:07:17;101269.69;;;15.43;30.44
7297;BME280;40758;54.038;11.684;2023-04-28T12:12:32;101253.84;;;15.45;28.69
7297;BME280;40758;54.038;11.684;2023-04-28T12:15:15;101262.75;;;15.52;29.15
7297;BME280;40758;54.038;11.684;2023-04-28T12:17:45;101257.34;;;15.17;29.28
7297;BME280;40758;54.038;11.684;2023-04-28T12:20:33;101258.28;;;15.23;30.39
7297;BME280;40758;54.038;11.684;2023-04-28T12:23:00;101256.75;;;14.80;30.63
7297;BME280;40758;54.038;11.684;2023-04-28T12:25:28;101249.00;;;14.65;30.76
7297;BME280;40758;54.038;11.684;2023-04-28T12:30:30;101245.72;;;14.86;32.27
7297;BME280;40758;54.038;11.684;2023-04-28T12:32:57;101236.91;;;14.96;31.41
7297;BME280;40758;54.038;11.684;2023-04-28T12:35:25;101238.44;;;15.04;31.88
7297;BME280;40758;54.038;11.684;2023-04-28T12:37:52;101242.16;;;14.86;32.21
7297;BME280;40758;54.038;11.684;2023-04-28T12:40:20;101230.13;;;14.87;31.78
7297;BME280;40758;54.038;11.684;2023-04-28T12:42:47;101234.38;;;14.48;32.02
7297;BME280;40758;54.038;11.684;2023-04-28T12:45:13;101233.44;;;14.77;33.32
7297;BME280;40758;54.038;11.684;2023-04-28T12:47:42;101230.59;;;14.60;32.33
7297;BME280;40758;54.038;11.684;2023-04-28T12:50:09;101220.84;;;14.76;32.36
7297;BME280;40758;54.038;11.684;2023-04-28T12:52:35;101222.63;;;14.59;32.03
7297;BME280;40758;54.038;11.684;2023-04-28T12:55:03;101219.13;;;14.40;32.40
7297;BME280;40758;54.038;11.684;2023-04-28T12:57:30;101222.88;;;14.57;33.19
7297;BME280;40758;54.038;11.684;2023-04-28T12:59:57;101205.16;;;14.48;33.21
7297;BME280;40758;54.038;11.684;2023-04-28T13:02:23;101214.44;;;14.71;32.71
7297;BME280;40758;54.038;11.684;2023-04-28T13:04:51;101205.00;;;14.43;32.33
7297;BME280;40758;54.038;11.684;2023-04-28T13:07:19;101210.41;;;14.85;33.47
7297;BME280;40758;54.038;11.684;2023-04-28T13:09:46;101213.44;;;14.42;31.22
7297;BME280;40758;54.038;11.684;2023-04-28T13:12:14;101212.06;;;14.74;32.53
7297;BME280;40758;54.038;11.684;2023-04-28T13:14:41;101201.53;;;15.30;32.35
7297;BME280;40758;54.038;11.684;2023-04-28T13:17:07;101192.91;;;15.09;32.08
7297;BME280;40758;54.038;11.684;2023-04-28T13:19:35;101183.47;;;15.29;31.75
7297;BME280;40758;54.038;11.684;2023-04-28T13:22:02;101193.53;;;14.76;30.90
7297;BME280;40758;54.038;11.684;2023-04-28T13:24:31;101191.97;;;14.92;31.99
7297;BME280;40758;54.038;11.684;2023-04-28T13:27:01;101184.38;;;14.71;31.39
7297;BME280;40758;54.038;11.684;2023-04-28T13:29:29;101182.47;;;14.59;31.44
7297;BME280;40758;54.038;11.684;2023-04-28T13:31:56;101186.75;;;14.55;31.92
7297;BME280;40758;54.038;11.684;2023-04-28T13:34:22;101176.94;;;14.36;31.85
7297;BME280;40758;54.038;11.684;2023-04-28T13:36:50;101176.38;;;14.46;31.91